Página principal
METAR-TAF:

METAR-TAF

Aeroportos :

Aeroporto Internacional Gobernador Francisco Gabrielli

Mendoza, Argentina

latitude: 32-50S, longitude: 068-47W, altura: 705 m

Observação actual do tempo

O boletim foi feito há 16 minutos, às 13:00 UTC
Vento 6 kt de nordeste
Temperatura 20°C
Humidade 21%
Pressão 1021 hPa
Visibilidade 10 km ou mais
sem nuvens abaixo de 1500 metros e sem cumulonimbus

METAR: SAME 181300Z 05006KT CAVOK 20/M03 Q1021

Hora: 10:16 (13:16 UTC)

Previsão

O boletim foi feito há 2 horas e 16 minutos, às 11:00 UTC
Previsão válida de 18 às 12 UTC a 19 às 12 UTC
Vento 5 kt de nordeste
Visibilidade 10 km ou mais
sem nuvens abaixo de 1500 metros e sem cumulonimbus

TAF: SAME 181100Z 1812/1912 05005KT CAVOK TX29/1820Z TN13/1910Z

Observações e previsões do tempo de mais de 4000 aeroportos (mensagens METAR e TAF).

As estações disponíveis são os pontos amarelos e vermelhos sobre o mapa.

Mova o rato sobre o mapa para ver o nome da estação.

Depois clique no ponto para visualizar as observações e previsões meteorológicas.

Para alterar o mapa : clique nos botões verdes com uma cruz preta para aumentar o zoom; no botão verde com uma pitada de zoom; ou nas setas verdes para mapas adjacentes.


METAR-TAF: